Time;durP1;ratioP1;P1;durP2;ratioP2;P2;SDS_P1;SDS_P2;PMS_P1;PMS_P2;Temp;Humidity;BMP_temperature;BMP_pressure;BME280_temperature;BME280_humidity;BME280_pressure;Samples;Min_cycle;Max_cycle;Signal;HPM_P1;HPM_P2
2021/08/28 00:01:15;;;;;;;16.13;10.25;;;;;;;;;;5111251;28;20087;-70
2021/08/28 00:03:41;;;;;;;18.00;12.27;;;;;;;;;;5111288;28;20032;-72
2021/08/28 00:06:07;;;;;;;16.98;11.63;;;;;;;;;;5110752;28;20533;-71
2021/08/28 00:08:33;;;;;;;16.60;11.15;;;;;;;;;;5111030;28;20084;-71
2021/08/28 00:10:59;;;;;;;17.98;10.80;;;;;;;;;;5110901;28;20027;-71
2021/08/28 00:13:39;;;;;;;15.68;10.38;;;;;;;;;;5111686;27;20796;-71
2021/08/28 00:16:05;;;;;;;16.77;10.60;;;;;;;;;;5111279;28;20032;-70
2021/08/28 00:18:31;;;;;;;17.90;12.20;;;;;;;;;;5110943;28;20457;-70
2021/08/28 00:21:26;;;;;;;17.10;11.95;;;;;;;;;;5112125;27;20820;-69
2021/08/28 00:23:53;;;;;;;16.85;11.82;;;;;;;;;;5111876;28;20028;-71
2021/08/28 00:27:01;;;;;;;17.98;10.95;;;;;;;;;;5111055;27;20400;-69
2021/08/28 00:29:27;;;;;;;19.35;11.25;;;;;;;;;;5111303;28;20024;-70
2021/08/28 00:31:54;;;;;;;18.05;11.27;;;;;;;;;;5111228;28;20027;-70
2021/08/28 00:34:20;;;;;;;21.40;12.50;;;;;;;;;;5110869;28;20019;-70
2021/08/28 00:36:46;;;;;;;17.20;11.50;;;;;;;;;;5111229;28;20384;-70
2021/08/28 00:39:12;;;;;;;17.83;11.65;;;;;;;;;;5110880;28;20028;-70
2021/08/28 00:42:19;;;;;;;17.05;11.05;;;;;;;;;;5112068;27;20396;-70
2021/08/28 00:46:39;;;;;;;16.17;11.45;;;;;;;;;;5111000;27;20392;-69
2021/08/28 00:49:05;;;;;;;16.63;10.90;;;;;;;;;;5111294;28;20023;-69
2021/08/28 00:51:31;;;;;;;18.42;12.23;;;;;;;;;;5111223;28;20028;-70
2021/08/28 00:53:58;;;;;;;15.73;10.30;;;;;;;;;;5110875;28;20027;-69
2021/08/28 00:56:54;;;;;;;16.05;10.40;;;;;;;;;;5111557;27;20465;-69
2021/08/28 00:59:20;;;;;;;19.92;11.75;;;;;;;;;;5111391;28;20099;-70
2021/08/28 01:01:47;;;;;;;18.25;10.80;;;;;;;;;;5110942;28;20028;-70
2021/08/28 01:04:19;;;;;;;19.30;11.80;;;;;;;;;;5111299;28;20031;-69
2021/08/28 01:08:28;;;;;;;18.48;11.50;;;;;;;;;;5030402;28;20480;-70
2021/08/28 01:11:08;;;;;;;18.95;11.82;;;;;;;;;;5030918;28;20026;-70
2021/08/28 01:13:35;;;;;;;17.55;10.90;;;;;;;;;;5030878;28;20434;-70
2021/08/28 01:17:57;;;;;;;18.27;12.20;;;;;;;;;;5112130;27;20916;-69
2021/08/28 01:20:23;;;;;;;18.42;12.02;;;;;;;;;;5111281;28;20024;-69
2021/08/28 01:23:08;;;;;;;18.42;12.23;;;;;;;;;;5111198;27;20385;-69
2021/08/28 01:27:02;;;;;;;16.95;11.55;;;;;;;;;;5112227;27;20517;-68
2021/08/28 01:30:36;;;;;;;17.42;12.27;;;;;;;;;;5050380;28;20420;-69
2021/08/28 01:33:03;;;;;;;17.48;12.35;;;;;;;;;;5051072;28;20108;-69
2021/08/28 01:36:12;;;;;;;18.98;12.32;;;;;;;;;;5050925;28;20475;-69
2021/08/28 01:38:39;;;;;;;16.55;11.18;;;;;;;;;;5050728;28;20036;-69
2021/08/28 01:41:05;;;;;;;18.60;11.70;;;;;;;;;;5050633;28;20033;-71
2021/08/28 01:44:09;;;;;;;16.77;10.77;;;;;;;;;;5111191;27;20415;-69
2021/08/28 01:46:37;;;;;;;19.95;12.07;;;;;;;;;;5111604;28;20027;-69
2021/08/28 01:49:03;;;;;;;17.55;11.23;;;;;;;;;;5111692;28;20473;-69
2021/08/28 01:53:08;;;;;;;17.50;12.27;;;;;;;;;;5112153;27;20408;-68
2021/08/28 01:55:35;;;;;;;19.73;12.20;;;;;;;;;;5111604;28;20034;-69
2021/08/28 01:58:52;;;;;;;19.05;12.02;;;;;;;;;;5090218;27;1847494;-69
2021/08/28 02:01:18;;;;;;;15.52;10.18;;;;;;;;;;5131923;28;20401;-69
2021/08/28 02:05:05;;;;;;;18.13;11.95;;;;;;;;;;5050566;28;20832;-69
2021/08/28 02:08:27;;;;;;;18.33;11.63;;;;;;;;;;5050969;28;20421;-69
2021/08/28 02:11:01;;;;;;;18.33;11.93;;;;;;;;;;5050496;28;20386;-69
2021/08/28 02:15:18;;;;;;;19.00;12.85;;;;;;;;;;5112183;27;20899;-68
2021/08/28 02:17:50;;;;;;;17.25;11.52;;;;;;;;;;5110899;28;20472;-68
2021/08/28 02:21:38;;;;;;;20.10;12.30;;;;;;;;;;5112139;27;20415;-68
2021/08/28 02:24:07;;;;;;;19.33;12.25;;;;;;;;;;5111636;28;20103;-69
2021/08/28 02:27:44;;;;;;;18.00;12.75;;;;;;;;;;5112001;27;20408;-68
2021/08/28 02:33:12;;;;;;;20.02;12.45;;;;;;;;;;5030874;28;20422;-69
2021/08/28 02:35:40;;;;;;;21.00;12.38;;;;;;;;;;5030882;28;20054;-69
2021/08/28 02:38:07;;;;;;;17.60;12.02;;;;;;;;;;5030888;28;20097;-69
2021/08/28 02:40:33;;;;;;;21.42;12.13;;;;;;;;;;5030513;28;20030;-69
2021/08/28 02:42:59;;;;;;;17.92;12.38;;;;;;;;;;5030892;28;20037;-69
2021/08/28 02:45:26;;;;;;;18.45;11.50;;;;;;;;;;5030624;28;20025;-69
2021/08/28 02:47:53;;;;;;;19.33;12.70;;;;;;;;;;5030265;28;20437;-69
2021/08/28 02:50:20;;;;;;;21.17;13.32;;;;;;;;;;5030833;28;20033;-69
2021/08/28 02:52:47;;;;;;;19.73;13.05;;;;;;;;;;5030511;28;20113;-69
2021/08/28 02:55:15;;;;;;;24.67;13.50;;;;;;;;;;5030890;28;20466;-71
2021/08/28 02:57:44;;;;;;;19.65;12.52;;;;;;;;;;5030613;28;20053;-69
2021/08/28 03:00:10;;;;;;;18.65;11.30;;;;;;;;;;5030144;28;20584;-70
2021/08/28 03:02:37;;;;;;;21.15;10.93;;;;;;;;;;5030395;28;20026;-70
2021/08/28 03:06:18;;;;;;;17.27;11.27;;;;;;;;;;5112103;27;20416;-69
2021/08/28 03:08:44;;;;;;;20.92;12.23;;;;;;;;;;5110897;28;20020;-69
2021/08/28 03:12:23;;;;;;;20.25;12.10;;;;;;;;;;5031544;28;20811;-69
2021/08/28 03:14:52;;;;;;;20.80;12.38;;;;;;;;;;5030483;28;20030;-71
2021/08/28 03:18:24;;;;;;;17.20;11.70;;;;;;;;;;5111875;27;20393;-69
2021/08/28 03:20:52;;;;;;;19.85;13.07;;;;;;;;;;5111311;28;20044;-69
2021/08/28 03:24:44;;;;;;;20.50;13.18;;;;;;;;;;5089832;27;1857635;-68
2021/08/28 03:27:11;;;;;;;18.10;12.18;;;;;;;;;;5131821;27;20028;-68
2021/08/28 03:29:37;;;;;;;20.95;12.32;;;;;;;;;;5131365;28;20023;-69
2021/08/28 03:32:42;;;;;;;18.73;11.50;;;;;;;;;;5070666;28;20407;-69
2021/08/28 03:35:11;;;;;;;19.08;12.80;;;;;;;;;;5070313;28;20025;-70
2021/08/28 03:37:39;;;;;;;23.70;11.88;;;;;;;;;;5070889;28;20066;-70
2021/08/28 03:40:21;;;;;;;24.35;12.23;;;;;;;;;;5111843;27;20412;-70
2021/08/28 03:42:47;;;;;;;20.20;12.15;;;;;;;;;;5110855;28;20035;-70
2021/08/28 03:45:13;;;;;;;17.42;11.73;;;;;;;;;;5111478;28;20027;-70
2021/08/28 03:47:43;;;;;;;19.73;12.57;;;;;;;;;;5111206;28;20515;-69
2021/08/28 03:50:09;;;;;;;19.10;12.85;;;;;;;;;;5110849;28;20392;-70
2021/08/28 03:52:36;;;;;;;17.83;12.13;;;;;;;;;;5111163;28;20030;-70
2021/08/28 03:55:02;;;;;;;20.23;11.90;;;;;;;;;;5111143;28;20024;-70
2021/08/28 03:59:44;;;;;;;17.05;11.50;;;;;;;;;;5111404;27;20408;-69
2021/08/28 04:02:10;;;;;;;18.85;11.85;;;;;;;;;;5111332;28;20066;-72
2021/08/28 04:04:37;;;;;;;18.42;12.05;;;;;;;;;;5110994;28;20031;-71
2021/08/28 04:09:02;;;;;;;18.85;11.48;;;;;;;;;;5111442;27;20416;-71
2021/08/28 04:11:28;;;;;;;18.80;11.05;;;;;;;;;;5110940;28;20031;-71
2021/08/28 04:15:05;;;;;;;16.65;11.10;;;;;;;;;;5111315;27;20388;-70
2021/08/28 04:17:32;;;;;;;17.38;11.23;;;;;;;;;;5090644;28;20143;-70
2021/08/28 04:19:58;;;;;;;18.58;11.38;;;;;;;;;;5090987;28;20081;-70
2021/08/28 04:22:24;;;;;;;20.15;11.85;;;;;;;;;;5091038;28;20021;-70
2021/08/28 04:24:50;;;;;;;19.15;12.30;;;;;;;;;;5090780;28;20086;-70
2021/08/28 04:28:33;;;;;;;19.25;12.38;;;;;;;;;;5111903;27;20517;-69
2021/08/28 04:32:17;;;;;;;18.02;12.38;;;;;;;;;;5111085;27;20928;-70
2021/08/28 04:36:19;;;;;;;19.00;12.18;;;;;;;;;;5112166;27;20384;-69
2021/08/28 04:38:45;;;;;;;19.88;11.77;;;;;;;;;;5110914;28;20035;-70
2021/08/28 04:41:11;;;;;;;21.30;13.73;;;;;;;;;;5111279;28;20365;-70
2021/08/28 04:43:37;;;;;;;19.55;13.35;;;;;;;;;;5111244;28;20020;-70
2021/08/28 04:46:04;;;;;;;20.60;11.57;;;;;;;;;;5110908;28;20020;-70
2021/08/28 04:48:31;;;;;;;19.10;11.55;;;;;;;;;;5111132;28;20024;-70
2021/08/28 04:50:58;;;;;;;17.70;11.65;;;;;;;;;;5111144;28;20476;-70
2021/08/28 04:55:50;;;;;;;18.10;12.00;;;;;;;;;;5111326;27;20784;-69
2021/08/28 04:59:56;;;;;;;24.70;11.95;;;;;;;;;;5111017;27;20989;-71
2021/08/28 05:02:23;;;;;;;22.80;12.82;;;;;;;;;;5111485;28;20066;-72
2021/08/28 05:04:49;;;;;;;22.60;12.80;;;;;;;;;;5111268;28;20016;-72
2021/08/28 05:07:15;;;;;;;16.88;11.40;;;;;;;;;;5110929;28;20035;-70
2021/08/28 05:09:41;;;;;;;18.85;11.15;;;;;;;;;;5111752;28;20023;-72
2021/08/28 05:12:08;;;;;;;19.30;12.98;;;;;;;;;;5111216;28;20031;-72
2021/08/28 05:14:40;;;;;;;19.08;11.88;;;;;;;;;;5110862;28;20500;-70
2021/08/28 05:17:06;;;;;;;21.20;13.07;;;;;;;;;;5111217;28;20032;-70
2021/08/28 05:20:23;;;;;;;18.08;12.20;;;;;;;;;;5031087;28;20390;-69
2021/08/28 05:22:49;;;;;;;18.15;12.20;;;;;;;;;;5030487;28;20022;-69
2021/08/28 05:25:16;;;;;;;19.75;11.25;;;;;;;;;;5031022;28;20374;-70
2021/08/28 05:27:42;;;;;;;18.20;11.23;;;;;;;;;;5030453;28;20026;-69
2021/08/28 05:33:14;;;;;;;19.08;11.90;;;;;;;;;;5111282;27;20388;-71
2021/08/28 05:35:40;;;;;;;19.63;12.05;;;;;;;;;;5110914;28;20062;-71
2021/08/28 05:38:07;;;;;;;18.75;11.77;;;;;;;;;;5111199;28;20024;-70
2021/08/28 05:42:14;;;;;;;19.00;11.63;;;;;;;;;;5110985;27;20416;-71
2021/08/28 05:46:39;;;;;;;17.98;11.02;;;;;;;;;;5112073;27;20458;-72
2021/08/28 05:53:34;;;;;;;17.27;10.75;;;;;;;;;;5111706;27;20396;-71
2021/08/28 05:56:01;;;;;;;17.58;11.23;;;;;;;;;;5111121;28;20027;-72
2021/08/28 05:58:27;;;;;;;18.80;10.25;;;;;;;;;;5111488;28;20027;-72
2021/08/28 06:00:53;;;;;;;17.73;11.48;;;;;;;;;;5111285;28;20042;-71
2021/08/28 06:03:19;;;;;;;16.23;10.70;;;;;;;;;;5110728;28;20564;-72
2021/08/28 06:05:47;;;;;;;19.55;11.48;;;;;;;;;;5111301;28;20136;-70
2021/08/28 06:08:13;;;;;;;15.85;10.80;;;;;;;;;;5111214;28;20024;-71
2021/08/28 06:10:39;;;;;;;18.27;12.55;;;;;;;;;;5110699;28;20062;-72
2021/08/28 06:13:06;;;;;;;18.98;11.23;;;;;;;;;;5110981;28;20032;-71
2021/08/28 06:15:32;;;;;;;17.15;11.05;;;;;;;;;;5111150;28;20020;-72
2021/08/28 06:17:58;;;;;;;16.98;10.88;;;;;;;;;;5110577;28;20028;-70
2021/08/28 06:20:25;;;;;;;18.80;11.05;;;;;;;;;;5110810;28;20020;-70
2021/08/28 06:23:43;;;;;;;20.27;11.40;;;;;;;;;;5111528;27;20419;-70
2021/08/28 06:29:04;;;;;;;19.73;11.95;;;;;;;;;;5111501;27;20324;-71
2021/08/28 06:32:07;;;;;;;17.23;10.30;;;;;;;;;;5111154;27;20428;-71
2021/08/28 06:34:33;;;;;;;17.08;9.48;;;;;;;;;;5111400;28;20035;-71
2021/08/28 06:37:00;;;;;;;18.63;11.18;;;;;;;;;;5111702;28;20464;-71
2021/08/28 06:39:26;;;;;;;15.85;10.40;;;;;;;;;;5111008;28;20028;-70
2021/08/28 06:42:49;;;;;;;15.63;9.27;;;;;;;;;;5111981;27;20423;-70
2021/08/28 06:45:15;;;;;;;18.52;10.77;;;;;;;;;;5110862;28;20032;-71
2021/08/28 06:49:36;;;;;;;20.83;10.50;;;;;;;;;;5051180;28;20486;-71
2021/08/28 06:52:03;;;;;;;17.00;10.07;;;;;;;;;;5050408;28;20091;-70
2021/08/28 06:54:29;;;;;;;16.95;10.35;;;;;;;;;;5049436;28;20470;-71
2021/08/28 06:56:55;;;;;;;14.90;10.00;;;;;;;;;;5050627;28;20017;-70
2021/08/28 06:59:21;;;;;;;17.85;10.48;;;;;;;;;;5049848;28;20544;-70
2021/08/28 07:01:47;;;;;;;14.82;9.77;;;;;;;;;;5050340;28;20433;-70
2021/08/28 07:04:13;;;;;;;17.42;10.05;;;;;;;;;;5051027;28;20052;-68
2021/08/28 07:06:40;;;;;;;15.73;9.93;;;;;;;;;;5049986;28;20025;-69
2021/08/28 07:09:06;;;;;;;14.95;9.70;;;;;;;;;;5050375;28;20033;-69
2021/08/28 07:11:32;;;;;;;15.63;9.70;;;;;;;;;;5050212;28;20112;-69
2021/08/28 07:13:59;;;;;;;16.65;10.63;;;;;;;;;;5049869;28;20485;-70
2021/08/28 07:16:25;;;;;;;18.63;9.85;;;;;;;;;;5050232;28;20382;-69
2021/08/28 07:18:51;;;;;;;15.05;8.75;;;;;;;;;;5050454;28;20021;-69
2021/08/28 07:21:18;;;;;;;16.88;10.23;;;;;;;;;;5049708;28;20036;-69
2021/08/28 07:23:46;;;;;;;16.88;10.27;;;;;;;;;;5049985;28;20537;-69
2021/08/28 07:26:12;;;;;;;16.25;9.40;;;;;;;;;;5049837;28;20083;-69
2021/08/28 07:28:39;;;;;;;12.60;8.27;;;;;;;;;;5049545;28;20037;-69
2021/08/28 07:31:05;;;;;;;12.60;8.52;;;;;;;;;;5049864;28;20045;-70
2021/08/28 07:34:59;;;;;;;15.38;9.30;;;;;;;;;;5111264;27;20420;-69
2021/08/28 07:37:42;;;;;;;13.63;8.07;;;;;;;;;;5111961;27;20791;-70
2021/08/28 07:40:08;;;;;;;14.65;8.23;;;;;;;;;;5111253;28;20369;-69
2021/08/28 07:42:34;;;;;;;14.68;8.63;;;;;;;;;;5110720;28;20089;-70
2021/08/28 07:45:00;;;;;;;13.95;8.95;;;;;;;;;;5111189;28;20422;-69
2021/08/28 07:47:27;;;;;;;13.35;8.73;;;;;;;;;;5111302;28;20085;-69
2021/08/28 07:51:35;;;;;;;14.02;8.60;;;;;;;;;;5111043;27;20396;-69
2021/08/28 07:54:01;;;;;;;14.40;8.05;;;;;;;;;;5111028;28;20020;-69
2021/08/28 07:57:16;;;;;;;14.98;8.40;;;;;;;;;;5110899;27;20416;-69
2021/08/28 07:59:42;;;;;;;12.32;7.93;;;;;;;;;;5111249;28;20369;-70
2021/08/28 08:02:08;;;;;;;13.73;7.78;;;;;;;;;;5111124;28;20030;-70
2021/08/28 08:04:34;;;;;;;13.13;8.02;;;;;;;;;;5110756;28;20020;-70
2021/08/28 08:07:00;;;;;;;13.55;7.72;;;;;;;;;;5111052;28;20016;-70
2021/08/28 08:09:26;;;;;;;13.60;8.15;;;;;;;;;;5110678;28;20058;-70
2021/08/28 08:11:52;;;;;;;13.18;7.25;;;;;;;;;;5110919;28;20099;-70
2021/08/28 08:15:32;;;;;;;11.00;7.60;;;;;;;;;;5111113;27;20473;-69
2021/08/28 08:17:59;;;;;;;16.05;7.75;;;;;;;;;;5110692;28;20434;-69
2021/08/28 08:21:33;;;;;;;14.02;8.10;;;;;;;;;;5070608;28;20126;-69
2021/08/28 08:24:38;;;;;;;13.07;7.20;;;;;;;;;;5110921;27;20416;-70
2021/08/28 08:27:04;;;;;;;12.60;7.15;;;;;;;;;;5111198;28;20035;-70
2021/08/28 08:29:30;;;;;;;12.55;7.68;;;;;;;;;;5111045;28;20027;-70
2021/08/28 08:31:56;;;;;;;12.50;7.38;;;;;;;;;;5110924;28;20035;-70
2021/08/28 08:34:23;;;;;;;11.18;7.47;;;;;;;;;;5111374;28;20024;-70
2021/08/28 08:36:49;;;;;;;11.10;7.00;;;;;;;;;;5110962;28;20047;-70
2021/08/28 08:39:16;;;;;;;12.10;7.22;;;;;;;;;;5126093;28;20035;-70
2021/08/28 08:41:44;;;;;;;11.63;7.70;;;;;;;;;;5111094;28;20019;-70
2021/08/28 08:44:11;;;;;;;12.80;7.35;;;;;;;;;;5110483;28;20111;-70
2021/08/28 08:48:34;;;;;;;11.35;7.13;;;;;;;;;;5111174;27;20416;-69
2021/08/28 08:51:02;;;;;;;11.40;7.40;;;;;;;;;;5110998;28;20058;-68
2021/08/28 08:53:29;;;;;;;11.25;6.57;;;;;;;;;;5110694;28;20055;-69
2021/08/28 08:55:56;;;;;;;12.77;6.70;;;;;;;;;;5111319;28;20024;-69
2021/08/28 08:58:22;;;;;;;13.43;7.07;;;;;;;;;;5111105;28;20044;-69
2021/08/28 09:00:48;;;;;;;11.32;5.85;;;;;;;;;;5110577;28;20024;-69
2021/08/28 09:03:14;;;;;;;10.15;5.68;;;;;;;;;;5111165;28;20050;-69
2021/08/28 09:05:41;;;;;;;13.00;6.55;;;;;;;;;;5110486;28;20027;-69
2021/08/28 09:08:07;;;;;;;9.95;6.30;;;;;;;;;;5111138;28;20387;-70
2021/08/28 09:10:33;;;;;;;10.18;6.25;;;;;;;;;;5126685;28;20404;-70
2021/08/28 09:13:20;;;;;;;9.20;5.57;;;;;;;;;;5110383;28;20496;-71
2021/08/28 09:15:50;;;;;;;11.68;6.60;;;;;;;;;;5110482;28;20106;-70
2021/08/28 09:18:17;;;;;;;10.23;5.95;;;;;;;;;;5110666;28;20507;-70
2021/08/28 09:20:44;;;;;;;10.52;6.28;;;;;;;;;;5110244;28;20124;-70
2021/08/28 09:23:12;;;;;;;9.88;6.13;;;;;;;;;;5110668;28;20027;-70
2021/08/28 09:25:39;;;;;;;10.13;6.20;;;;;;;;;;5110660;28;20024;-71
2021/08/28 09:28:06;;;;;;;9.15;5.68;;;;;;;;;;5110000;28;20418;-71
2021/08/28 09:30:38;;;;;;;10.05;5.78;;;;;;;;;;5110495;28;20024;-72
2021/08/28 09:33:06;;;;;;;8.87;5.17;;;;;;;;;;5110669;28;20035;-72
2021/08/28 09:36:02;;;;;;;10.43;5.72;;;;;;;;;;5109930;28;20599;-71
2021/08/28 09:38:28;;;;;;;8.80;5.00;;;;;;;;;;5105635;28;20036;-70
2021/08/28 09:40:55;;;;;;;9.10;5.50;;;;;;;;;;5109846;28;20034;-68
2021/08/28 09:43:22;;;;;;;10.43;5.72;;;;;;;;;;5110560;28;20095;-69
2021/08/28 09:45:50;;;;;;;8.45;5.25;;;;;;;;;;5110317;28;20023;-70
2021/08/28 09:48:18;;;;;;;10.30;5.25;;;;;;;;;;5109592;28;20494;-69
2021/08/28 09:50:48;;;;;;;9.25;5.00;;;;;;;;;;5110354;28;20085;-69
2021/08/28 09:53:21;;;;;;;8.95;4.95;;;;;;;;;;5110162;28;20043;-69
2021/08/28 09:55:53;;;;;;;10.10;5.68;;;;;;;;;;5109537;28;20012;-69
2021/08/28 09:58:23;;;;;;;9.57;5.05;;;;;;;;;;5105476;28;20342;-69
2021/08/28 10:00:49;;;;;;;13.85;5.57;;;;;;;;;;5096372;28;20028;-69
2021/08/28 10:03:17;;;;;;;11.10;5.22;;;;;;;;;;5111634;28;20028;-70
2021/08/28 10:05:44;;;;;;;8.30;5.22;;;;;;;;;;5096506;28;20044;-70
2021/08/28 10:08:11;;;;;;;10.18;5.15;;;;;;;;;;5096179;28;20071;-70
2021/08/28 10:10:38;;;;;;;11.43;4.63;;;;;;;;;;5095961;28;20028;-70
2021/08/28 10:13:05;;;;;;;7.25;4.72;;;;;;;;;;5096056;28;20028;-70
2021/08/28 10:15:33;;;;;;;8.45;5.25;;;;;;;;;;5096170;28;20111;-70
2021/08/28 10:18:00;;;;;;;9.27;5.10;;;;;;;;;;5095673;28;20027;-71
2021/08/28 10:20:27;;;;;;;9.63;4.53;;;;;;;;;;5096229;28;20027;-71
2021/08/28 10:22:55;;;;;;;9.30;4.63;;;;;;;;;;5096372;28;20372;-70
2021/08/28 10:25:23;;;;;;;7.88;4.65;;;;;;;;;;5095894;28;20511;-70
2021/08/28 10:27:50;;;;;;;6.60;3.88;;;;;;;;;;5095852;28;20039;-70
2021/08/28 10:30:17;;;;;;;7.15;4.30;;;;;;;;;;5095490;28;20032;-70
2021/08/28 10:32:44;;;;;;;7.45;4.50;;;;;;;;;;5095991;28;20042;-70
2021/08/28 10:35:11;;;;;;;7.47;4.07;;;;;;;;;;5096251;28;20101;-70
2021/08/28 10:37:37;;;;;;;9.40;4.50;;;;;;;;;;5110963;28;20056;-70
2021/08/28 10:40:09;;;;;;;12.80;4.82;;;;;;;;;;5095629;28;20389;-69
2021/08/28 10:42:36;;;;;;;8.40;4.13;;;;;;;;;;5095546;28;20095;-70
2021/08/28 10:45:02;;;;;;;10.23;4.68;;;;;;;;;;5095130;28;20249;-70
2021/08/28 10:47:30;;;;;;;7.88;4.15;;;;;;;;;;5094977;28;20408;-70
2021/08/28 10:50:00;;;;;;;8.00;4.60;;;;;;;;;;5095630;28;20020;-70
2021/08/28 10:52:27;;;;;;;9.35;4.45;;;;;;;;;;5095136;28;20078;-69
2021/08/28 10:55:03;;;;;;;8.93;4.50;;;;;;;;;;5095402;28;20465;-70
2021/08/28 10:57:29;;;;;;;7.40;4.13;;;;;;;;;;5095474;28;20083;-70
2021/08/28 11:00:01;;;;;;;9.85;4.85;;;;;;;;;;5094783;28;20024;-70
2021/08/28 11:02:46;;;;;;;14.20;5.18;;;;;;;;;;5095372;28;20031;-70
2021/08/28 11:05:16;;;;;;;9.85;5.07;;;;;;;;;;5094698;28;20384;-70
2021/08/28 11:07:42;;;;;;;7.30;4.25;;;;;;;;;;5095086;28;20085;-70
2021/08/28 11:10:22;;;;;;;8.85;4.40;;;;;;;;;;5094075;28;20020;-70
2021/08/28 11:12:48;;;;;;;7.78;4.38;;;;;;;;;;5094622;28;20052;-70
2021/08/28 11:15:23;;;;;;;7.65;3.95;;;;;;;;;;5094997;28;20077;-71
2021/08/28 11:17:50;;;;;;;7.13;3.80;;;;;;;;;;5094952;28;20020;-70
2021/08/28 11:20:26;;;;;;;8.18;4.03;;;;;;;;;;5094566;28;20027;-69
2021/08/28 11:22:52;;;;;;;8.13;3.50;;;;;;;;;;5094871;28;20443;-69
2021/08/28 11:25:22;;;;;;;7.13;3.78;;;;;;;;;;5094737;28;20100;-71
2021/08/28 11:27:54;;;;;;;9.07;4.10;;;;;;;;;;5094324;28;20031;-70
2021/08/28 11:30:39;;;;;;;13.35;3.80;;;;;;;;;;5094796;28;20066;-70
2021/08/28 11:33:09;;;;;;;6.57;3.40;;;;;;;;;;5094991;28;20073;-70
2021/08/28 11:35:39;;;;;;;9.55;3.83;;;;;;;;;;5094700;28;20385;-70
2021/08/28 11:38:06;;;;;;;6.85;3.58;;;;;;;;;;5094733;28;20028;-70
2021/08/28 11:40:35;;;;;;;8.85;3.75;;;;;;;;;;5094451;28;20028;-71
2021/08/28 11:43:02;;;;;;;7.03;4.03;;;;;;;;;;5094676;28;20449;-71
2021/08/28 11:45:29;;;;;;;11.70;3.47;;;;;;;;;;5094431;28;20027;-71
2021/08/28 11:47:56;;;;;;;6.78;3.05;;;;;;;;;;5093726;28;20055;-71
2021/08/28 11:50:28;;;;;;;6.00;3.33;;;;;;;;;;5094269;28;20469;-71
2021/08/28 11:52:55;;;;;;;7.97;3.40;;;;;;;;;;5094925;28;20050;-71
2021/08/28 11:55:23;;;;;;;8.15;3.80;;;;;;;;;;5093844;28;20024;-70
2021/08/28 11:58:07;;;;;;;6.60;3.42;;;;;;;;;;5094255;28;20028;-70
2021/08/28 12:00:33;;;;;;;7.03;3.00;;;;;;;;;;5094369;28;20024;-71
2021/08/28 12:03:00;;;;;;;9.65;3.53;;;;;;;;;;5093714;28;20035;-69
2021/08/28 12:05:28;;;;;;;8.68;3.25;;;;;;;;;;5094021;28;20472;-70
2021/08/28 12:07:55;;;;;;;5.70;2.83;;;;;;;;;;5093969;28;20063;-70
2021/08/28 12:10:21;;;;;;;6.65;3.53;;;;;;;;;;5093501;28;20059;-70
2021/08/28 12:13:01;;;;;;;7.57;3.50;;;;;;;;;;5094049;28;20069;-70
2021/08/28 12:15:28;;;;;;;7.05;3.55;;;;;;;;;;5093362;28;20394;-70
2021/08/28 12:17:55;;;;;;;7.40;3.35;;;;;;;;;;5094036;28;20024;-71
2021/08/28 12:20:24;;;;;;;7.07;3.28;;;;;;;;;;5094360;28;20024;-71
2021/08/28 12:22:51;;;;;;;6.30;3.05;;;;;;;;;;5093200;28;20016;-70
2021/08/28 12:25:17;;;;;;;6.47;3.33;;;;;;;;;;5093787;28;20423;-70
2021/08/28 12:27:45;;;;;;;6.95;3.60;;;;;;;;;;5093672;28;20067;-70
2021/08/28 12:30:11;;;;;;;6.63;3.22;;;;;;;;;;5093405;28;20047;-70
2021/08/28 12:32:37;;;;;;;6.43;3.40;;;;;;;;;;5093865;28;20484;-70
2021/08/28 12:35:04;;;;;;;6.40;3.10;;;;;;;;;;5092509;28;20028;-71
2021/08/28 12:37:31;;;;;;;7.10;3.58;;;;;;;;;;5093269;28;20028;-71
2021/08/28 12:39:59;;;;;;;6.28;2.95;;;;;;;;;;5093509;28;20020;-71
2021/08/28 12:42:26;;;;;;;9.30;3.03;;;;;;;;;;5093617;28;20049;-71
2021/08/28 12:44:53;;;;;;;8.95;3.65;;;;;;;;;;5093202;28;20016;-71
2021/08/28 12:47:21;;;;;;;5.53;2.72;;;;;;;;;;5093212;28;20048;-70
2021/08/28 12:49:50;;;;;;;6.18;3.15;;;;;;;;;;5093360;28;20472;-71
2021/08/28 12:52:17;;;;;;;7.93;3.70;;;;;;;;;;5093059;28;20028;-71
2021/08/28 12:54:46;;;;;;;7.45;3.13;;;;;;;;;;5093359;28;20038;-71
2021/08/28 12:57:17;;;;;;;6.85;3.67;;;;;;;;;;5093360;28;20024;-70
2021/08/28 12:59:55;;;;;;;6.47;3.30;;;;;;;;;;5093077;28;20028;-70
2021/08/28 13:02:23;;;;;;;7.68;3.08;;;;;;;;;;5093709;28;20028;-70
2021/08/28 13:04:50;;;;;;;8.13;3.22;;;;;;;;;;5093238;28;20024;-70
2021/08/28 13:07:21;;;;;;;5.97;3.45;;;;;;;;;;5093303;28;20032;-70
2021/08/28 13:09:55;;;;;;;4.68;3.00;;;;;;;;;;5093311;28;20028;-70
2021/08/28 13:12:40;;;;;;;5.03;2.63;;;;;;;;;;5092871;28;20476;-70
2021/08/28 13:15:06;;;;;;;6.80;3.65;;;;;;;;;;5109013;28;20482;-70
2021/08/28 13:17:33;;;;;;;8.05;3.40;;;;;;;;;;5093451;28;20024;-70
2021/08/28 13:20:00;;;;;;;5.93;3.13;;;;;;;;;;5092822;28;20020;-71
2021/08/28 13:22:26;;;;;;;6.82;3.78;;;;;;;;;;5093141;28;20484;-70
2021/08/28 13:24:52;;;;;;;6.88;3.38;;;;;;;;;;5093055;28;20051;-71
2021/08/28 13:27:18;;;;;;;8.13;3.38;;;;;;;;;;5092767;28;20028;-71
2021/08/28 13:29:44;;;;;;;4.63;2.70;;;;;;;;;;5093375;28;20020;-70
2021/08/28 13:32:12;;;;;;;6.55;2.95;;;;;;;;;;5108869;28;20376;-70
2021/08/28 13:34:40;;;;;;;6.85;3.03;;;;;;;;;;5095254;28;20055;-69
2021/08/28 13:37:07;;;;;;;7.75;3.22;;;;;;;;;;5096814;28;20020;-75
2021/08/28 13:39:34;;;;;;;10.13;3.53;;;;;;;;;;5096838;28;20031;-69
2021/08/28 13:42:00;;;;;;;5.28;2.70;;;;;;;;;;5096396;28;20028;-70
2021/08/28 13:44:26;;;;;;;5.78;2.80;;;;;;;;;;5096868;28;20031;-70
2021/08/28 13:46:53;;;;;;;6.05;2.90;;;;;;;;;;5096300;28;20040;-69
2021/08/28 13:49:19;;;;;;;7.80;3.05;;;;;;;;;;5096661;28;20028;-69
2021/08/28 13:51:45;;;;;;;7.70;3.15;;;;;;;;;;5096904;28;20217;-69
2021/08/28 13:54:12;;;;;;;12.02;3.53;;;;;;;;;;5096040;28;20016;-69
2021/08/28 13:56:38;;;;;;;6.32;2.67;;;;;;;;;;5096729;28;20038;-70
2021/08/28 13:59:04;;;;;;;7.03;3.25;;;;;;;;;;5112786;28;20380;-71
2021/08/28 14:01:30;;;;;;;7.85;3.17;;;;;;;;;;5096067;28;20028;-70
2021/08/28 14:03:56;;;;;;;5.70;2.80;;;;;;;;;;5096524;28;20478;-70
2021/08/28 14:06:23;;;;;;;6.72;3.05;;;;;;;;;;5096243;28;20024;-70
2021/08/28 14:08:49;;;;;;;5.45;2.50;;;;;;;;;;5096041;28;20095;-70
2021/08/28 14:11:15;;;;;;;9.43;3.55;;;;;;;;;;5096267;28;20044;-70
2021/08/28 14:13:41;;;;;;;6.07;2.88;;;;;;;;;;5096170;28;20476;-72
2021/08/28 14:16:08;;;;;;;7.07;3.20;;;;;;;;;;5095715;28;20028;-70
2021/08/28 14:18:34;;;;;;;8.32;2.72;;;;;;;;;;5096115;28;20095;-71
2021/08/28 14:21:01;;;;;;;4.72;2.45;;;;;;;;;;5096070;28;20532;-70
2021/08/28 14:23:27;;;;;;;4.70;2.47;;;;;;;;;;5095824;28;20020;-70
2021/08/28 14:25:53;;;;;;;4.10;2.20;;;;;;;;;;5095976;28;20418;-70
2021/08/28 14:28:21;;;;;;;8.63;2.97;;;;;;;;;;5095803;28;20082;-69
2021/08/28 14:30:47;;;;;;;6.93;2.92;;;;;;;;;;5095560;28;20040;-70
2021/08/28 14:33:13;;;;;;;5.45;2.55;;;;;;;;;;5095717;28;20024;-70
2021/08/28 14:35:39;;;;;;;5.10;2.90;;;;;;;;;;5095759;28;20020;-72
2021/08/28 14:38:06;;;;;;;5.53;2.88;;;;;;;;;;5095367;28;20101;-72
2021/08/28 14:40:32;;;;;;;4.97;2.38;;;;;;;;;;5095721;28;20030;-73
2021/08/28 14:42:59;;;;;;;9.60;3.35;;;;;;;;;;5095657;28;20365;-73
2021/08/28 14:45:25;;;;;;;8.43;3.13;;;;;;;;;;5094974;28;20016;-72
2021/08/28 14:47:51;;;;;;;7.20;3.28;;;;;;;;;;5095288;28;20056;-71
2021/08/28 14:50:17;;;;;;;6.28;2.80;;;;;;;;;;5095116;28;20024;-71
2021/08/28 14:52:43;;;;;;;8.40;2.97;;;;;;;;;;5095572;28;20453;-71
2021/08/28 14:55:10;;;;;;;5.07;2.88;;;;;;;;;;5095448;28;20419;-72
2021/08/28 14:57:36;;;;;;;6.15;3.55;;;;;;;;;;5094952;28;20080;-72
2021/08/28 15:00:03;;;;;;;8.32;3.67;;;;;;;;;;5095571;28;20025;-70
2021/08/28 15:02:30;;;;;;;6.72;2.80;;;;;;;;;;5095539;28;20028;-70
2021/08/28 15:04:56;;;;;;;6.90;2.70;;;;;;;;;;5094754;28;20027;-69
2021/08/28 15:07:22;;;;;;;6.35;2.90;;;;;;;;;;5095245;28;20035;-70
2021/08/28 15:09:48;;;;;;;6.28;2.65;;;;;;;;;;5095059;28;20024;-70
2021/08/28 15:12:15;;;;;;;5.80;3.03;;;;;;;;;;5094628;28;20024;-70
2021/08/28 15:14:42;;;;;;;6.07;3.28;;;;;;;;;;5094945;28;20032;-70
2021/08/28 15:17:08;;;;;;;7.03;3.03;;;;;;;;;;5094944;28;20020;-70
2021/08/28 15:19:34;;;;;;;7.22;3.67;;;;;;;;;;5094578;28;20035;-71
2021/08/28 15:22:01;;;;;;;6.30;3.38;;;;;;;;;;5094959;28;20016;-73
2021/08/28 15:24:30;;;;;;;6.32;3.40;;;;;;;;;;5094846;28;20423;-70
2021/08/28 15:26:56;;;;;;;5.55;2.78;;;;;;;;;;5094334;28;20479;-70
2021/08/28 15:29:23;;;;;;;7.20;3.33;;;;;;;;;;5094817;28;20043;-71
2021/08/28 15:31:49;;;;;;;8.05;3.25;;;;;;;;;;5094727;28;20384;-71
2021/08/28 15:34:15;;;;;;;8.85;3.03;;;;;;;;;;5109917;28;20385;-71
2021/08/28 15:36:42;;;;;;;8.73;3.00;;;;;;;;;;5094938;28;20039;-72
2021/08/28 15:39:08;;;;;;;7.63;3.83;;;;;;;;;;5094619;28;20031;-74
2021/08/28 15:41:34;;;;;;;9.88;3.78;;;;;;;;;;5094117;28;20055;-72